Latest Weather Observations for Oodnadatta

IDS60801

Issued at 10:31 am CDT Thursday 29 February 2024 (issued every 10 minutes, with the page automatically refreshed every 10 minutes)

About weather observations | Map of weather stations | Latest weather observations for SA | Other Formats
Station Details ID: 017043 Name: OODNADATTA AIRPORT Lat: -27.56 Lon: 135.45 Height: 116.5 m
Data from the previous 72 hours. | See also: Recent months at Oodnadatta
Date/Time
CDT
Temp
°C
App
Temp
°C
Dew
Point
°C
Rel
Hum
%
Delta-T
°C
Wind Press
QNH
hPa
Press
MSL
hPa
Rain since
9am
mm
Dir  Spd
km/h
Gust
km/h
Spd
kts
Gust
kts
29/10:30am 36.0 35.9 20.7 41 10.4 NNE 22 30 12 16 1013.1 1012.3 0.0
29/10:00am 35.0 34.0 20.5 42 9.8 NNE 26 32 14 17 1012.9 1012.1 0.0
29/09:30am 34.6 34.6 20.9 44 9.3 NNE 22 30 12 16 1012.7 1011.9 0.0
29/09:00am 33.4 32.6 20.9 48 8.4 NNE 26 32 14 17 1012.4 1011.6 -
29/08:30am 32.5 31.5 20.4 49 8.1 NNE 26 33 14 18 1012.0 1011.2 -
29/08:00am 31.9 31.6 19.5 47 8.2 NNE 20 26 11 14 1011.6 1010.8 -
29/07:30am 31.5 31.0 19.2 48 8.1 NNE 20 28 11 15 1011.1 1010.3 -
29/07:00am 31.8 30.9 19.1 47 8.3 NNE 22 28 12 15 1010.7 1009.9 -
29/06:30am 32.0 31.3 18.6 45 8.7 NNE 20 24 11 13 1010.5 1009.7 -
29/06:00am 32.2 31.4 18.0 42 9.2 NNE 19 22 10 12 1010.2 1009.5 -
29/05:30am 32.7 31.8 18.1 42 9.5 NNE 20 26 11 14 1009.9 1009.2 -
29/05:00am 33.1 32.2 17.7 40 9.9 NNE 19 26 10 14 1009.9 1009.2 -
29/04:30am 33.5 32.0 17.6 38 10.3 NNE 22 30 12 16 1009.7 1009.0 -
29/04:00am 33.6 31.9 17.3 37 10.5 NNE 22 28 12 15 1009.5 1008.8 -
29/03:30am 34.1 31.5 16.9 36 11.0 NNE 26 32 14 17 1009.4 1008.7 -
29/03:00am 34.5 31.5 16.8 34 11.3 NE 28 33 15 18 1009.6 1008.9 0.0
29/02:30am 34.8 32.5 16.6 33 11.6 NNE 24 32 13 17 1009.5 1008.8 -
29/02:00am 35.3 32.6 16.6 33 12.0 NNE 26 33 14 18 1009.5 1008.8 -
29/01:30am 35.6 32.4 16.4 32 12.3 NE 28 35 15 19 1009.5 1008.8 -
29/01:00am 36.0 32.9 15.7 30 12.9 NE 26 33 14 18 1009.6 1008.9 -
29/12:30am 36.6 33.2 15.7 29 13.3 NE 28 35 15 19 1009.6 1008.9 -
29/12:00am 36.9 32.8 14.8 26 13.9 NE 30 37 16 20 1009.6 1008.9 -
 
Date/Time
CDT
Temp
°C
App
Temp
°C
Dew
Point
°C
Rel
Hum
%
Delta-T
°C
Wind Press
QNH
hPa
Press
MSL
hPa
Rain since
9am
mm
Dir  Spd
km/h
Gust
km/h
Spd
kts
Gust
kts
28/11:30pm 37.2 33.7 14.5 26 14.2 NE 26 33 14 18 1009.5 1008.8 -
28/11:00pm 37.7 33.6 14.9 26 14.4 NE 30 39 16 21 1009.3 1008.6 -
28/10:30pm 38.4 34.4 14.2 23 15.2 NE 28 39 15 21 1009.0 1008.2 -
28/10:00pm 38.7 35.6 14.5 24 15.2 NE 24 33 13 18 1008.7 1007.9 -
28/09:30pm 39.3 36.1 14.3 22 15.7 NE 24 28 13 15 1008.3 1007.5 -
28/09:00pm 39.7 37.4 14.0 22 16.1 ENE 19 22 10 12 1007.8 1007.0 0.0
28/08:30pm 40.2 37.2 13.7 21 16.6 NE 22 28 12 15 1007.5 1006.7 -
28/08:00pm 40.7 37.4 14.1 21 16.7 NE 24 32 13 17 1007.0 1006.2 -
28/07:30pm 41.6 38.6 14.8 20 17.1 NE 24 32 13 17 1006.7 1005.9 -
28/07:00pm 41.9 38.7 14.3 20 17.5 ENE 24 30 13 16 1006.3 1005.5 -
28/06:30pm 42.0 38.9 14.4 20 17.6 NNE 24 32 13 17 1006.3 1005.5 -
28/06:00pm 42.3 40.0 14.6 19 17.7 NE 20 30 11 16 1006.3 1005.5 -
28/05:30pm 42.0 40.1 15.1 20 17.3 NE 19 30 10 16 1006.4 1005.6 -
28/05:00pm 42.7 41.1 15.0 20 17.8 NNE 17 33 9 18 1006.6 1005.8 -
28/04:30pm 42.5 40.3 14.8 20 17.7 NE 20 30 11 16 1006.8 1006.0 -
28/04:00pm 42.6 40.6 14.9 20 17.7 NNE 19 35 10 19 1007.2 1006.4 -
28/03:30pm 43.0 40.1 16.0 21 17.6 NNE 26 37 14 20 1007.6 1006.8 -
28/03:00pm 42.8 39.9 15.0 19 17.9 N 24 37 13 20 1007.9 1007.1 -
28/02:30pm 42.2 38.9 16.0 21 17.0 N 28 43 15 23 1008.3 1007.5 -
28/02:00pm 42.7 40.3 16.5 22 17.1 N 24 39 13 21 1008.5 1007.7 -
28/01:30pm 41.1 37.8 15.1 21 16.6 N 26 46 14 25 1008.9 1008.1 -
28/01:27pm 41.8 38.6 16.4 22 16.5 N 28 46 15 25 1008.9 1008.1 -
28/01:00pm 41.8 38.5 17.1 24 16.2 N 30 44 16 24 1009.2 1008.4 -
28/12:30pm 41.1 37.7 17.8 26 15.4 N 32 44 17 24 1009.5 1008.8 -
28/12:00pm 40.5 37.2 18.4 27 14.7 N 33 48 18 26 1009.8 1009.1 -
28/11:30am 39.4 35.8 18.6 29 13.8 N 35 46 19 25 1010.0 1009.3 -
28/11:00am 39.1 36.5 19.4 31 13.2 N 32 43 17 23 1010.5 1009.7 -
28/10:30am 37.7 34.7 18.7 33 12.6 N 32 41 17 22 1010.7 1009.9 -
28/09:30am 35.4 33.7 18.0 35 11.4 - 24 33 13 18 1010.1 1009.4 0.0
28/09:00am 34.7 33.1 16.5 33 11.6 - 20 26 11 14 1010.0 1009.3 0.0
28/08:30am 33.2 32.4 15.2 33 11.2 - 13 22 7 12 1009.6 1008.9 0.0
28/08:00am 31.5 30.7 12.8 32 11.2 - 9 13 5 7 1009.5 1008.8 0.0
28/07:30am 30.8 28.8 12.7 33 10.8 - 15 20 8 11 1008.9 1008.1 0.0
28/07:00am 31.2 29.4 12.1 31 11.3 - 13 17 7 9 1008.7 1007.9 0.0
28/06:30am 31.9 28.8 12.2 30 11.7 - 20 26 11 14 1008.1 1007.3 0.0
28/06:00am 32.1 28.1 11.8 29 12.0 - 24 32 13 17 1007.8 1007.0 0.0
28/05:30am 32.0 28.0 11.7 28 12.0 - 24 30 13 16 1007.5 1006.7 0.0
28/05:00am 32.1 28.3 11.3 28 12.2 - 22 26 12 14 1007.6 1006.8 0.0
28/04:30am 32.7 28.9 11.3 27 12.6 - 22 26 12 14 1007.5 1006.7 0.0
28/04:00am 32.8 28.9 10.8 26 12.8 - 22 26 12 14 1007.4 1006.6 0.0
28/03:30am 33.4 29.1 10.7 25 13.3 - 24 32 13 17 1007.2 1006.4 0.0
28/03:00am 33.5 28.9 9.5 23 13.8 - 24 28 13 15 1007.2 1006.4 0.0
28/02:30am 33.5 28.5 8.2 21 14.2 - 24 28 13 15 1007.3 1006.5 0.0
28/02:00am 33.6 29.0 8.3 21 14.2 - 22 28 12 15 1007.6 1006.8 0.0
28/01:30am 33.0 29.3 7.8 21 14.0 - 17 19 9 10 1007.7 1006.9 0.0
28/01:00am 33.7 29.5 7.6 20 14.5 - 19 22 10 12 1007.8 1007.0 0.0
28/12:30am 33.5 29.7 7.5 20 14.5 - 17 19 9 10 1008.0 1007.2 0.0
28/12:00am 34.0 30.1 7.1 19 14.9 - 17 17 9 9 1008.0 1007.2 0.0
 
Date/Time
CDT
Temp
°C
App
Temp
°C
Dew
Point
°C
Rel
Hum
%
Delta-T
°C
Wind Press
QNH
hPa
Press
MSL
hPa
Rain since
9am
mm
Dir  Spd
km/h
Gust
km/h
Spd
kts
Gust
kts
27/11:30pm 34.8 31.1 7.8 19 15.2 - 17 19 9 10 1007.9 1007.1 0.0
27/11:00pm 34.9 31.4 7.1 18 15.4 - 15 19 8 10 1007.7 1006.9 0.0
27/10:30pm 35.6 31.6 6.8 17 16.0 - 17 17 9 9 1007.6 1006.8 0.0
27/10:00pm 36.3 32.6 6.5 16 16.5 - 15 17 8 9 1007.2 1006.4 0.0
27/09:30pm 37.5 33.5 6.5 15 17.3 - 17 17 9 9 1006.9 1006.1 0.0
27/09:00pm 38.4 34.4 5.1 13 18.3 - 15 17 8 9 1006.6 1005.8 0.0
27/08:30pm 39.5 34.7 4.8 12 19.1 - 19 20 10 11 1006.2 1005.4 0.0
27/08:00pm 40.7 36.6 4.5 11 19.9 - 15 17 8 9 1006.0 1005.2 0.0
27/07:30pm 41.6 36.4 3.8 10 20.7 - 20 30 11 16 1005.7 1004.9 0.0
27/07:00pm 42.0 37.2 2.6 9 21.2 - 17 26 9 14 1005.5 1004.7 0.0
27/06:30pm 42.6 37.9 3.1 9 21.5 - 17 26 9 14 1005.5 1004.7 0.0
27/06:00pm 42.6 37.3 3.1 9 21.5 - 20 30 11 16 1005.3 1004.5 0.0
27/05:30pm 42.7 37.3 1.5 8 21.9 - 19 30 10 16 1005.5 1004.7 0.0
27/05:00pm 42.9 37.0 1.6 8 22.0 - 22 33 12 18 1005.6 1004.8 0.0
27/04:30pm 42.7 36.8 1.5 8 21.9 - 22 35 12 19 1005.8 1005.0 0.0
27/04:00pm 43.1 38.2 1.8 8 22.1 - 17 30 9 16 1006.2 1005.4 0.0
27/03:30pm 41.9 35.5 0.9 8 21.5 - 24 37 13 20 1006.7 1005.9 0.0
27/03:00pm 42.4 36.8 1.3 8 21.8 - 20 32 11 17 1007.1 1006.3 0.0
27/02:30pm 41.7 35.3 0.8 8 21.4 - 24 39 13 21 1007.6 1006.8 0.0
27/02:00pm 40.9 34.3 1.8 9 20.7 - 26 43 14 23 1007.9 1007.1 0.0
27/01:30pm 41.3 34.3 2.1 9 20.9 - 28 41 15 22 1008.4 1007.6 0.0
27/01:00pm 40.2 33.3 2.8 10 20.0 - 28 43 15 23 1008.8 1008.0 0.0
27/12:30pm 39.1 32.2 4.5 12 18.9 - 30 39 16 21 1009.2 1008.4 0.0
27/12:00pm 39.1 33.6 5.7 13 18.6 - 24 35 13 19 1009.6 1008.9 0.0
27/11:30am 37.7 30.7 2.2 11 18.6 - 28 37 15 20 1010.0 1009.3 0.0
27/11:00am 36.5 29.4 1.3 11 18.0 - 28 35 15 19 1010.1 1009.4 0.0
27/10:30am 35.9 28.9 2.1 12 17.5 - 28 33 15 18 1010.5 1009.7 0.0
27/10:00am 34.6 27.8 1.1 12 16.9 - 26 33 14 18 1010.7 1009.9 0.0
27/09:30am 33.0 25.5 -1.4 11 16.5 - 28 33 15 18 1010.7 1009.9 0.0
27/09:00am 31.5 24.4 -1.3 12 15.6 - 26 32 14 17 1010.6 1009.8 0.0
27/08:30am 29.8 23.8 -1.5 13 14.6 - 20 24 11 13 1010.6 1009.8 0.0
27/08:00am 27.1 21.7 -1.7 15 13.1 - 17 20 9 11 1010.5 1009.7 0.0
27/07:30am 25.2 19.7 -2.4 16 12.2 - 17 19 9 10 1009.9 1009.2 0.0
27/07:00am 25.2 20.4 -2.4 16 12.2 - 13 15 7 8 1009.9 1009.2 0.0
27/06:30am 24.5 21.7 -2.9 16 12.0 - 2 7 1 4 1009.6 1008.9 0.0
27/06:00am 25.6 21.0 -3.8 14 12.8 - 11 17 6 9 1009.7 1009.0 0.0
27/05:30am 26.7 20.7 -3.0 14 13.2 - 19 20 10 11 1009.3 1008.6 0.0
27/05:00am 26.3 20.5 -4.3 13 13.2 - 17 20 9 11 1009.3 1008.6 0.0
27/04:30am 25.3 19.6 -4.1 14 12.7 - 17 17 9 9 1009.4 1008.7 0.0
27/04:00am 24.8 19.9 -3.6 15 12.3 - 13 13 7 7 1009.5 1008.8 0.0
27/03:30am 25.4 21.2 -4.0 14 12.7 - 9 11 5 6 1009.5 1008.8 0.0
27/03:00am 25.9 22.1 -3.6 14 12.9 - 7 9 4 5 1009.7 1009.0 0.0
27/02:30am 26.6 21.3 -4.0 13 13.3 - 15 17 8 9 1010.0 1009.3 0.0
27/02:00am 27.5 22.5 -4.4 12 13.9 - 13 15 7 8 1010.3 1009.6 0.0
27/01:30am 28.1 23.1 -3.9 12 14.1 - 13 15 7 8 1010.6 1009.8 0.0
27/01:00am 29.3 23.9 -4.2 11 14.9 - 15 17 8 9 1010.7 1009.9 0.0
27/12:30am 29.8 24.5 -3.8 11 15.1 - 15 17 8 9 1010.9 1010.1 0.0
27/12:00am 30.8 25.4 -4.3 10 15.7 - 15 19 8 10 1011.1 1010.3 0.0
 
Date/Time
CDT
Temp
°C
App
Temp
°C
Dew
Point
°C
Rel
Hum
%
Delta-T
°C
Wind Press
QNH
hPa
Press
MSL
hPa
Rain since
9am
mm
Dir  Spd
km/h
Gust
km/h
Spd
kts
Gust
kts
26/11:30pm 31.9 26.2 -3.5 10 16.2 - 17 20 9 11 1011.0 1010.2 0.0
26/11:00pm 32.6 26.5 -4.3 9 16.8 - 19 22 10 12 1011.0 1010.2 0.0
26/10:30pm 33.3 27.2 -3.8 9 17.1 - 19 24 10 13 1011.0 1010.2 0.0
26/10:00pm 33.5 27.4 -3.7 9 17.2 - 19 20 10 11 1010.8 1010.0 0.0
26/09:30pm 34.4 28.0 -4.6 8 17.9 - 20 24 11 13 1010.5 1009.7 0.0
26/09:00pm 35.2 29.1 -4.0 8 18.3 - 19 22 10 12 1010.2 1009.5 0.0
26/08:30pm 35.9 30.6 -3.5 8 18.6 - 15 17 8 9 1009.8 1009.1 0.0
26/08:00pm 37.7 31.6 -3.9 7 19.8 - 19 26 10 14 1009.5 1008.8 0.0
26/07:30pm 38.6 32.6 -3.3 7 20.2 - 19 24 10 13 1009.4 1008.7 0.0
26/07:00pm 38.9 32.7 -3.1 7 20.4 - 20 26 11 14 1009.2 1008.4 0.0
26/06:30pm 39.4 33.8 -2.7 7 20.6 - 17 28 9 15 1009.2 1008.4 0.0
26/06:00pm 39.5 34.7 -2.6 7 20.7 - 13 24 7 13 1009.1 1008.3 0.0
26/05:30pm 39.1 33.5 -2.9 7 20.5 - 17 24 9 13 1009.4 1008.7 0.0
26/05:00pm 39.7 34.5 -2.5 7 20.7 - 15 20 8 11 1009.5 1008.8 0.0
26/04:30pm 39.6 34.8 -2.6 7 20.7 - 13 20 7 11 1009.7 1009.0 0.0
26/04:00pm 38.5 33.2 -3.4 7 20.2 - 15 24 8 13 1009.9 1009.2 0.0
26/03:30pm 38.5 33.6 -3.4 7 20.2 - 13 24 7 13 1010.5 1009.7 0.0
26/03:00pm 38.0 33.4 -3.7 7 19.9 - 11 22 6 12 1010.9 1010.1 0.0
26/02:30pm 38.1 33.4 -1.9 8 19.7 - 13 26 7 14 1011.4 1010.6 0.0
26/02:00pm 37.8 31.9 -2.1 8 19.5 - 19 28 10 15 1011.8 1011.0 0.0
26/01:30pm 37.1 31.5 -2.6 8 19.2 - 17 30 9 16 1012.3 1011.5 0.0
26/01:00pm 36.5 31.1 -1.4 9 18.6 - 17 30 9 16 1012.7 1011.9 0.0
26/12:30pm 36.1 30.3 -1.7 9 18.4 - 19 30 10 16 1013.1 1012.3 0.0
26/12:00pm 35.8 30.3 -2.0 9 18.3 - 17 22 9 12 1013.4 1012.6 0.0
26/11:30am 35.3 29.8 -2.3 9 18.0 - 17 26 9 14 1013.8 1013.0 0.0
26/11:00am 35.6 29.7 -2.1 9 18.2 - 19 26 10 14 1014.0 1013.2 0.0

Other formats

Comma delimited format used in spreadsheet applications
http://www.bom.gov.au/fwo/IDS60801/IDS60801.94476.axf

JavaScript Object Notation format (JSON) in row-major order
http://www.bom.gov.au/fwo/IDS60801/IDS60801.94476.json

Data quality

Most of these data are generated automatically and are frequently updated. Quality checks on data are not normally performed. It is possible for incorrect values to appear. Refer to information at About Latest Weather Observations and please check the disclaimer before using these data.